»·PEaware :: N642C KKLS-KBLI

N642C :: KKLS-KBLI

FLIGHT INFORMATION

Flight Status: Arrived
Operator: Privately registered:
United States
More flights under this callsign
Pilot: Nick S. (39537)
Aircraft: SOCATA TBM-900
(TBM9)
More flights by this aircraft type
Origin: KKLS Kelso-Longview
United States
Destination: KBLI Bellingham Intl
United States
More flights between these airports :: More routes between these airports
Route: KELSO2 KELNG OLM PAE MADEE4
File this flight plan on PilotEdge
Remarks:
Altitude:
(Current/Filed)
22,000ft
Speed:
(Current/Filed)
300kts
Departed: 30-Apr-23 09:22 AM
Arrived: 30-Apr-23 10:18 AM
Distance/Time
Traveled:
161nm/0:55
Distance/Time
To Go:
Arrived

Flight Plot

Page will automatically refresh every two minutes.

Flight plan parsing failed; only flown route is shown


Map Options




Map Legend


Flown Route
Filed Route
Departure Airport
Arrival Airport
Navaid (VOR, NDB)
Fix

Horizontal Profiles

Position Reports

Time Latitude Longitude Heading Altitude Ground
Speed
30-Apr-23 09:10 46.122470 -122.905340 137 19ft 0kts
30-Apr-23 09:11 46.122470 -122.905340 137 19ft 0kts
30-Apr-23 09:12 46.122470 -122.905340 137 19ft 0kts
30-Apr-23 09:13 46.122470 -122.905340 137 19ft 0kts
30-Apr-23 09:14 46.122470 -122.905340 137 19ft 0kts
30-Apr-23 09:15 46.122470 -122.905340 137 19ft 0kts
30-Apr-23 09:16 46.122470 -122.905340 137 19ft 0kts
30-Apr-23 09:17 46.122470 -122.905340 137 19ft 0kts
30-Apr-23 09:18 46.122470 -122.905340 137 19ft 0kts
30-Apr-23 09:19 46.122470 -122.905340 137 19ft 0kts
30-Apr-23 09:20 46.122470 -122.905340 137 19ft 0kts
30-Apr-23 09:21 46.118142 -122.898532 141 20ft 54kts
30-Apr-23 09:22 46.113721 -122.892445 207 18ft 0kts
30-Apr-23 09:23 46.113721 -122.892445 207 18ft 0kts
30-Apr-23 09:24 46.113721 -122.892445 207 18ft 0kts
30-Apr-23 09:25 46.113721 -122.892444 207 18ft 0kts
30-Apr-23 09:26 46.120067 -122.900684 321 189ft 98kts
30-Apr-23 09:27 46.138615 -122.939483 289 2143ft 127kts
30-Apr-23 09:28 46.152554 -122.987733 288 4012ft 131kts
30-Apr-23 09:29 46.166919 -123.037073 286 5924ft 135kts
30-Apr-23 09:30 46.194909 -123.072359 7 7976ft 164kts
30-Apr-23 09:31 46.242475 -123.061990 11 10032ft 180kts
30-Apr-23 09:32 46.293455 -123.050913 11 12015ft 190kts
30-Apr-23 09:33 46.347425 -123.039167 11 14119ft 203kts
30-Apr-23 09:34 46.406004 -123.026375 11 16043ft 221kts
30-Apr-23 09:35 46.469180 -123.012546 11 17905ft 245kts
30-Apr-23 09:36 46.538822 -122.997307 11 19690ft 260kts
30-Apr-23 09:37 46.611825 -122.981308 11 21521ft 270kts
30-Apr-23 09:38 46.693558 -122.963116 11 22040ft 330kts
30-Apr-23 09:39 46.789387 -122.941979 11 22036ft 359kts
30-Apr-23 09:40 46.889237 -122.919874 11 22026ft 366kts
30-Apr-23 09:41 46.988807 -122.890603 29 22027ft 362kts
30-Apr-23 09:42 47.081281 -122.830682 29 22019ft 362kts
30-Apr-23 09:43 47.173475 -122.770779 29 21994ft 363kts
30-Apr-23 09:44 47.265811 -122.710596 28 22009ft 363kts
30-Apr-23 09:45 47.357892 -122.650328 28 22008ft 362kts
30-Apr-23 09:46 47.449796 -122.589939 29 22000ft 361kts
30-Apr-23 09:47 47.541691 -122.529314 29 21818ft 367kts
30-Apr-23 09:48 47.637630 -122.465699 28 20345ft 382kts
30-Apr-23 09:49 47.734525 -122.401339 28 18843ft 379kts
30-Apr-23 09:50 47.829888 -122.337676 28 17352ft 369kts
30-Apr-23 09:51 47.924364 -122.286453 5 16016ft 361kts
30-Apr-23 09:52 48.023447 -122.306974 348 14242ft 364kts
30-Apr-23 09:53 48.110532 -122.333117 350 12266ft 286kts
30-Apr-23 09:54 48.186690 -122.354833 350 10566ft 273kts
30-Apr-23 09:55 48.259500 -122.376075 350 8911ft 259kts
30-Apr-23 09:56 48.333833 -122.397631 349 7240ft 279kts
30-Apr-23 09:57 48.402326 -122.417896 349 6803ft 252kts
30-Apr-23 09:58 48.472332 -122.438454 348 6296ft 258kts
30-Apr-23 09:59 48.542511 -122.459186 348 5922ft 252kts
30-Apr-23 10:00 48.611134 -122.471401 353 6003ft 246kts
30-Apr-23 10:01 48.679632 -122.483279 353 5991ft 247kts
30-Apr-23 10:02 48.747987 -122.494830 354 5993ft 247kts
30-Apr-23 10:03 48.817610 -122.506949 353 5995ft 255kts
30-Apr-23 10:04 48.888123 -122.519294 353 5996ft 257kts
30-Apr-23 10:05 48.959480 -122.531724 353 5987ft 258kts
30-Apr-23 10:06 49.019549 -122.561633 310 5826ft 218kts
30-Apr-23 10:07 49.066676 -122.626928 343 4742ft 221kts
30-Apr-23 10:08 49.103516 -122.588422 88 3272ft 157kts
30-Apr-23 10:09 49.073909 -122.539482 180 2124ft 168kts
30-Apr-23 10:10 49.026452 -122.538898 180 1998ft 169kts
30-Apr-23 10:11 48.979590 -122.538319 180 1993ft 172kts
30-Apr-23 10:12 48.930881 -122.538097 181 2007ft 175kts
30-Apr-23 10:13 48.889831 -122.537881 181 1945ft 120kts
30-Apr-23 10:14 48.857307 -122.537874 180 1295ft 116kts
30-Apr-23 10:15 48.825427 -122.537696 181 653ft 114kts
30-Apr-23 10:16 48.796494 -122.537472 183 170ft 63kts
30-Apr-23 10:17 48.793324 -122.536179 38 170ft 0kts

Navigation Log

Ident Type
Flight plan parsing failed, navigation log unavailable